WetterOnline ( http://www.wetteronline.de )

Wetter aktuell Kassel

Aktuelles Wetter: Schauenburg-Elgershausen (317m)

6-stündlich | Neueste Meldungen
Ortszeit Temperatur Wetter
Fr, 16.11. 13:00 7.8° C leicht bewölkt
Fr, 16.11. 7:00 0.5° C wolkig
Fr, 16.11. 1:00 3.2° C bedeckt
Do, 15.11. 19:00 4.0° C bedeckt
Do, 15.11. 13:00 3.2° C bedeckt
Do, 15.11. 7:00 2.8° C Nebel
Do, 15.11. 1:00 4.9° C bedeckt
Mi, 14.11. 19:00 6.1° C bedeckt
Ortszeit Temperatur Wetter
Fr, 16.11. 15:00 8.3° C wolkenlos
Fr, 16.11. 14:50 8.3° C wolkenlos
Fr, 16.11. 14:40 8.4° C fast wolkenlos
Fr, 16.11. 14:30 8.3° C leicht bewölkt
Fr, 16.11. 14:20 8.3° C leicht bewölkt
Fr, 16.11. 14:10 8.2° C fast wolkenlos
Fr, 16.11. 14:00 8.3° C wolkenlos
Fr, 16.11. 13:30 7.9° C wolkenlos
Fr, 16.11. 13:00 7.8° C leicht bewölkt
Fr, 16.11. 12:30 7.1° C leicht bewölkt
Fr, 16.11. 12:00 6.6° C wolkenlos
Ortszeit Relative Feuchte Sichtweite
Fr, 16.11. 13:00 63% 30 km
Fr, 16.11. 7:00 94% 6 km
Fr, 16.11. 1:00 95% 3.5 km
Do, 15.11. 19:00 89% 12 km
Do, 15.11. 13:00 97% 2.8 km
Do, 15.11. 7:00 98% 0.2 km
Do, 15.11. 1:00 92% 10 km
Mi, 14.11. 19:00 92% 13 km
Ortszeit Relative Feuchte Sichtweite
Fr, 16.11. 15:00 64% 29 km
Fr, 16.11. 14:50 64% -
Fr, 16.11. 14:40 63% -
Fr, 16.11. 14:30 63% 29 km
Fr, 16.11. 14:20 63% -
Fr, 16.11. 14:10 63% -
Fr, 16.11. 14:00 62% 27 km
Fr, 16.11. 13:30 63% 30 km
Fr, 16.11. 13:00 63% 30 km
Fr, 16.11. 12:30 68% 23 km
Fr, 16.11. 12:00 72% 25 km
Ortszeit Niederschlagsmenge Niederschlagsart
Fr, 16.11. 13:00 0.0 l/m2 in 6 Std. -
Fr, 16.11. 7:00 0.0 l/m2 in 12 Std. -
Fr, 16.11. 1:00 0.0 l/m2 in 6 Std. -
Do, 15.11. 19:00 0.0 l/m2 in 12 Std. -
Do, 15.11. 13:00 0.0 l/m2 in 6 Std. -
Do, 15.11. 7:00 0.0 l/m2 in 12 Std. -
Do, 15.11. 1:00 0.0 l/m2 in 6 Std. -
Mi, 14.11. 19:00 0.0 l/m2 in 12 Std. -
Ortszeit Niederschlagsmenge Niederschlagsart
Fr, 16.11. 15:00 0.0 l/m2 in 1 Std. -
Fr, 16.11. 14:50 keine Meldung -
Fr, 16.11. 14:40 keine Meldung -
Fr, 16.11. 14:30 0.0 l/m2 in 1 Std. -
Fr, 16.11. 14:20 keine Meldung -
Fr, 16.11. 14:10 keine Meldung -
Fr, 16.11. 14:00 0.0 l/m2 in 1 Std. -
Fr, 16.11. 13:30 0.0 l/m2 in 1 Std. -
Fr, 16.11. 13:00 0.0 l/m2 in 1 Std. -
Fr, 16.11. 12:30 0.0 l/m2 in 1 Std. -
Fr, 16.11. 12:00 0.0 l/m2 in 1 Std. -
Ortszeit Stärke Spitze Richtung
km/h Bft. km/h Grad Sektor
Fr, 16.11. 13:00 9 2 15 150° SO
Fr, 16.11. 7:00 2 1 13 40° NO
Fr, 16.11. 1:00 4 1 14 140° SO
Do, 15.11. 19:00 9 2 24 110° O
Do, 15.11. 13:00 14 3 22 160° S
Do, 15.11. 7:00 11 2 22 160° S
Do, 15.11. 1:00 11 2 20 150° SO
Mi, 14.11. 19:00 4 1 18 110° O
Ortszeit Stärke Spitze Richtung
km/h Bft. km/h Grad Sektor
Fr, 16.11. 15:00 9 2 15 160° S
Fr, 16.11. 14:50 9 2 - 160° S
Fr, 16.11. 14:40 9 2 - 160° S
Fr, 16.11. 14:30 7 2 11 170° S
Fr, 16.11. 14:20 7 2 - 170° S
Fr, 16.11. 14:10 7 2 - 170° S
Fr, 16.11. 14:00 9 2 15 160° S
Fr, 16.11. 13:30 9 2 15 160° S
Fr, 16.11. 13:00 9 2 15 150° SO
Fr, 16.11. 12:30 7 2 14 130° SO
Fr, 16.11. 12:00 9 2 13 130° SO
Ortszeit Untergrenze Bedeckung Gattung
total tief tief mittel hoch
Fr, 16.11. 13:00 10500 m 7/8 0/8 - - -
Fr, 16.11. 7:00 10500 m 8/8 0/8 - - -
Fr, 16.11. 1:00 90 m 8/8 8/8 - - -
Do, 15.11. 19:00 210 m 8/8 8/8 - - -
Do, 15.11. 13:00 30 m 8/8 8/8 - - -
Do, 15.11. 7:00 <30 m 8/8 8/8 - - -
Do, 15.11. 1:00 150 m 8/8 8/8 - - -
Mi, 14.11. 19:00 240 m 8/8 8/8 - - -
Ortszeit Bedeckungsgrad in Achtel und Wolkenuntergrenze
Fr, 16.11. 15:00 keine Wolken
Fr, 16.11. 14:50 keine Wolken
Fr, 16.11. 14:40 1(10500m)
Fr, 16.11. 14:30 3(10500m)
Fr, 16.11. 14:20 3(10500m)
Fr, 16.11. 14:10 1(10500m)
Fr, 16.11. 14:00 keine Wolken
Fr, 16.11. 13:30 2(10500m)
Fr, 16.11. 13:00 7(10500m)
Fr, 16.11. 12:30 5(10500m)
Fr, 16.11. 12:00 keine Wolken
Ortszeit Luftdruck NN (hPa) Tendenz (hPa in 3 Std.)
Fr, 16.11. 13:00 1031 - 0,8
Fr, 16.11. 7:00 1031 + 0,8
Fr, 16.11. 1:00 1030 + 0,4
Do, 15.11. 19:00 1029 + 0,5
Do, 15.11. 13:00 1029 - 0,2
Do, 15.11. 7:00 1029 + 0,1
Do, 15.11. 1:00 1029 - 0,5
Mi, 14.11. 19:00 1029 - 1,4
Ortszeit Luftdruck NN (hPa) Tendenz (hPa in 3 Std.)
Fr, 16.11. 15:00 1031 - 0,3
Fr, 16.11. 14:50 1031 keine Meldung
Fr, 16.11. 14:40 1031 keine Meldung
Fr, 16.11. 14:30 1031 - 0,4
Fr, 16.11. 14:20 1031 keine Meldung
Fr, 16.11. 14:10 1031 keine Meldung
Fr, 16.11. 14:00 1031 - 0,6
Fr, 16.11. 13:30 1031 - 0,6
Fr, 16.11. 13:00 1031 - 0,8
Fr, 16.11. 12:30 1031 - 0,6
Fr, 16.11. 12:00 1032 - 0,1
Ortszeit Schneehöhe (cm)
Fr, 16.11. 13:00 0
Fr, 16.11. 7:00 0
Fr, 16.11. 1:00 0
Do, 15.11. 19:00 0
Do, 15.11. 13:00 0
Do, 15.11. 7:00 0
Do, 15.11. 1:00 0
Mi, 14.11. 19:00 0
Ortszeit Schneehöhe (cm)
Fr, 16.11. 15:00 0
Fr, 16.11. 14:50 0
Fr, 16.11. 14:40 0
Fr, 16.11. 14:30 0
Fr, 16.11. 14:20 0
Fr, 16.11. 14:10 0
Fr, 16.11. 14:00 0
Fr, 16.11. 13:30 0
Fr, 16.11. 13:00 0
Fr, 16.11. 12:30 0
Fr, 16.11. 12:00 0
Link zu dieser Seite / Seite empfehlen

Das Wetter in ...